AUA295 LOWW-EBBR
Flight info
| Callsign | AUA295 |
|---|---|
| Flight time | 1h 20m |
| Altitude | 36000 |
| Route | MEDIX DCT RENKA DCT INBED DCT TEKTU DCT TESGA DCT UMUPU T880 ADMUM/N0381F240 T880 BATTY |
| Aircraft | A321/M-SDE2E3FGIJ1RWXY/LB1 |
Departure
| Time | 2026-05-07 17:44 |
|---|---|
| Airport | Vienna International Airport (LOWW) |
Arrival
| Time | 2026-05-07 19:05 |
|---|---|
| Airport | Brussels Airport (EBBR) |
| Time | Latitude | Longitude | Altitude | Speed | Heading |
|---|---|---|---|---|---|
| 2026-05-07 17:17 | 48.11812 | 16.57042 | 622 ft | 0 kts | 206° |
| 2026-05-07 17:31 | 48.11834 | 16.57058 | 613 ft | 4 kts | 206° |
| 2026-05-07 17:31 | 48.11854 | 16.57073 | 625 ft | 4 kts | 195° |
| 2026-05-07 17:32 | 48.11876 | 16.57070 | 618 ft | 4 kts | 132° |
| 2026-05-07 17:32 | 48.11887 | 16.57043 | 622 ft | 1 kts | 116° |
| 2026-05-07 17:37 | 48.11886 | 16.57048 | 623 ft | 2 kts | 116° |
| 2026-05-07 17:40 | 48.11884 | 16.57053 | 623 ft | 4 kts | 116° |
| 2026-05-07 17:40 | 48.11856 | 16.57160 | 615 ft | 14 kts | 97° |
| 2026-05-07 17:40 | 48.11829 | 16.57293 | 621 ft | 13 kts | 116° |
| 2026-05-07 17:40 | 48.11761 | 16.57362 | 617 ft | 12 kts | 171° |
| 2026-05-07 17:41 | 48.11678 | 16.57398 | 615 ft | 14 kts | 162° |
| 2026-05-07 17:41 | 48.11582 | 16.57442 | 618 ft | 14 kts | 163° |
| 2026-05-07 17:41 | 48.11485 | 16.57450 | 609 ft | 14 kts | 194° |
| 2026-05-07 17:41 | 48.11397 | 16.57393 | 617 ft | 14 kts | 204° |
| 2026-05-07 17:42 | 48.11309 | 16.57329 | 617 ft | 14 kts | 206° |
| 2026-05-07 17:42 | 48.11223 | 16.57266 | 618 ft | 14 kts | 205° |
| 2026-05-07 17:42 | 48.11164 | 16.57225 | 625 ft | 0 kts | 205° |
| 2026-05-07 17:42 | 48.11146 | 16.57212 | 617 ft | 9 kts | 205° |
| 2026-05-07 17:43 | 48.11067 | 16.57145 | 620 ft | 11 kts | 226° |
| 2026-05-07 17:43 | 48.11070 | 16.57056 | 622 ft | 0 kts | 295° |
| 2026-05-07 17:43 | 48.11077 | 16.57033 | 619 ft | 12 kts | 294° |
| 2026-05-07 17:44 | 48.11227 | 16.56565 | 609 ft | 85 kts | 296° |
| 2026-05-07 17:44 | 48.11576 | 16.55498 | 622 ft | 141 kts | 295° |
| 2026-05-07 17:44 | 48.12075 | 16.53991 | 740 ft | 172 kts | 291° |
| 2026-05-07 17:44 | 48.12321 | 16.52331 | 1386 ft | 164 kts | 259° |
| 2026-05-07 17:45 | 48.12088 | 16.50668 | 2043 ft | 163 kts | 256° |
| 2026-05-07 17:45 | 48.11843 | 16.48979 | 2577 ft | 172 kts | 256° |
| 2026-05-07 17:45 | 48.11574 | 16.47132 | 2882 ft | 191 kts | 255° |
| 2026-05-07 17:45 | 48.11226 | 16.45097 | 3120 ft | 212 kts | 255° |
| 2026-05-07 17:46 | 48.10822 | 16.42868 | 3347 ft | 231 kts | 256° |
| 2026-05-07 17:46 | 48.10383 | 16.40396 | 3484 ft | 262 kts | 256° |
| 2026-05-07 17:46 | 48.09898 | 16.37602 | 3668 ft | 291 kts | 256° |
| 2026-05-07 17:46 | 48.09558 | 16.35599 | 3858 ft | 307 kts | 257° |
| 2026-05-07 17:47 | 48.09394 | 16.34626 | 3947 ft | 314 kts | 257° |
| 2026-05-07 17:47 | 48.09103 | 16.31421 | 4738 ft | 310 kts | 271° |
| 2026-05-07 17:47 | 48.09260 | 16.28280 | 6166 ft | 289 kts | 278° |
| 2026-05-07 17:47 | 48.09521 | 16.25432 | 7444 ft | 274 kts | 279° |
| 2026-05-07 17:48 | 48.09819 | 16.22621 | 8340 ft | 273 kts | 280° |
| 2026-05-07 17:48 | 48.10237 | 16.19843 | 9118 ft | 275 kts | 290° |
| 2026-05-07 17:48 | 48.10927 | 16.17159 | 9875 ft | 278 kts | 291° |
| 2026-05-07 17:48 | 48.11622 | 16.14415 | 10336 ft | 291 kts | 290° |
| 2026-05-07 17:49 | 48.12357 | 16.11460 | 10481 ft | 314 kts | 290° |
| 2026-05-07 17:49 | 48.12869 | 16.09380 | 10564 ft | 328 kts | 290° |
| 2026-05-07 17:49 | 48.13958 | 16.04927 | 10895 ft | 349 kts | 290° |
| 2026-05-07 17:49 | 48.14626 | 16.02187 | 11340 ft | 353 kts | 289° |
| 2026-05-07 17:50 | 48.14884 | 16.01130 | 11534 ft | 354 kts | 289° |
| 2026-05-07 17:50 | 48.15469 | 15.98724 | 11971 ft | 357 kts | 289° |
| 2026-05-07 17:50 | 48.15924 | 15.96783 | 12327 ft | 358 kts | 288° |
| 2026-05-07 17:50 | 48.16320 | 15.95080 | 12667 ft | 357 kts | 289° |
| 2026-05-07 17:51 | 48.16926 | 15.92531 | 13046 ft | 362 kts | 289° |
| 2026-05-07 17:51 | 48.17733 | 15.89196 | 13574 ft | 366 kts | 289° |
| 2026-05-07 17:51 | 48.18619 | 15.85605 | 14119 ft | 370 kts | 289° |
| 2026-05-07 17:51 | 48.19521 | 15.81972 | 14621 ft | 373 kts | 289° |
| 2026-05-07 17:52 | 48.20427 | 15.78304 | 15129 ft | 377 kts | 289° |
| 2026-05-07 17:52 | 48.21333 | 15.74603 | 15641 ft | 380 kts | 288° |
| 2026-05-07 17:52 | 48.22240 | 15.70866 | 16143 ft | 383 kts | 288° |
| 2026-05-07 17:52 | 48.23146 | 15.67102 | 16649 ft | 384 kts | 288° |
| 2026-05-07 17:53 | 48.24054 | 15.63318 | 17141 ft | 387 kts | 288° |
| 2026-05-07 17:53 | 48.24959 | 15.59547 | 17596 ft | 389 kts | 287° |
| 2026-05-07 17:53 | 48.25884 | 15.55679 | 18151 ft | 389 kts | 288° |
| 2026-05-07 17:53 | 48.26783 | 15.51910 | 18608 ft | 389 kts | 288° |
| 2026-05-07 17:54 | 48.27697 | 15.48075 | 18997 ft | 391 kts | 288° |
| 2026-05-07 17:54 | 48.28615 | 15.44226 | 19384 ft | 394 kts | 288° |
| 2026-05-07 17:54 | 48.29497 | 15.40320 | 19776 ft | 395 kts | 283° |
| 2026-05-07 17:54 | 48.30156 | 15.36293 | 20167 ft | 397 kts | 282° |
| 2026-05-07 17:55 | 48.30807 | 15.32247 | 20573 ft | 400 kts | 281° |
| 2026-05-07 17:55 | 48.31461 | 15.28174 | 20975 ft | 403 kts | 281° |
| 2026-05-07 17:55 | 48.32123 | 15.24059 | 21398 ft | 405 kts | 281° |
| 2026-05-07 17:55 | 48.32786 | 15.19926 | 21819 ft | 408 kts | 281° |
| 2026-05-07 17:56 | 48.33455 | 15.15758 | 22288 ft | 410 kts | 281° |
| 2026-05-07 17:56 | 48.34112 | 15.11638 | 22729 ft | 412 kts | 281° |
| 2026-05-07 17:56 | 48.34788 | 15.07386 | 23161 ft | 414 kts | 281° |
| 2026-05-07 17:56 | 48.35448 | 15.03221 | 23561 ft | 416 kts | 281° |
| 2026-05-07 17:57 | 48.36116 | 14.98984 | 23902 ft | 419 kts | 281° |
| 2026-05-07 17:57 | 48.36787 | 14.94715 | 24254 ft | 421 kts | 281° |
| 2026-05-07 17:57 | 48.37458 | 14.90424 | 24592 ft | 422 kts | 280° |
| 2026-05-07 17:57 | 48.38132 | 14.86112 | 24927 ft | 425 kts | 280° |
| 2026-05-07 17:58 | 48.38810 | 14.81783 | 25267 ft | 427 kts | 280° |
| 2026-05-07 17:58 | 48.39493 | 14.77423 | 25627 ft | 428 kts | 281° |
| 2026-05-07 17:58 | 48.40174 | 14.73065 | 26035 ft | 428 kts | 281° |
| 2026-05-07 17:58 | 48.40854 | 14.68695 | 26375 ft | 429 kts | 281° |
| 2026-05-07 17:59 | 48.41533 | 14.64301 | 26701 ft | 431 kts | 280° |
| 2026-05-07 17:59 | 48.42212 | 14.59907 | 27013 ft | 433 kts | 280° |
| 2026-05-07 17:59 | 48.42892 | 14.55483 | 27286 ft | 435 kts | 280° |
| 2026-05-07 17:59 | 48.43573 | 14.51038 | 27555 ft | 437 kts | 280° |
| 2026-05-07 18:00 | 48.44256 | 14.46578 | 27799 ft | 438 kts | 280° |
| 2026-05-07 18:00 | 48.44941 | 14.42097 | 28045 ft | 440 kts | 280° |
| 2026-05-07 18:00 | 48.45628 | 14.37600 | 28265 ft | 441 kts | 279° |
| 2026-05-07 18:00 | 48.46310 | 14.33099 | 28619 ft | 439 kts | 281° |
| 2026-05-07 18:01 | 48.46987 | 14.28611 | 28984 ft | 437 kts | 281° |
| 2026-05-07 18:01 | 48.47651 | 14.24207 | 29318 ft | 436 kts | 281° |
| 2026-05-07 18:01 | 48.48329 | 14.19694 | 29642 ft | 435 kts | 281° |
| 2026-05-07 18:01 | 48.48995 | 14.15246 | 29955 ft | 435 kts | 281° |
| 2026-05-07 18:02 | 48.50312 | 14.06435 | 30494 ft | 434 kts | 281° |
| 2026-05-07 18:02 | 48.50974 | 14.01991 | 30747 ft | 433 kts | 281° |
| 2026-05-07 18:02 | 48.51630 | 13.97552 | 30987 ft | 433 kts | 280° |
| 2026-05-07 18:03 | 48.52284 | 13.93123 | 31253 ft | 433 kts | 281° |
| 2026-05-07 18:03 | 48.53184 | 13.88791 | 31494 ft | 435 kts | 292° |
| 2026-05-07 18:03 | 48.54439 | 13.84647 | 31722 ft | 435 kts | 292° |
| 2026-05-07 18:03 | 48.55712 | 13.80495 | 31975 ft | 435 kts | 292° |
| 2026-05-07 18:04 | 48.56990 | 13.76353 | 32223 ft | 435 kts | 292° |
| 2026-05-07 18:04 | 48.58269 | 13.72211 | 32460 ft | 435 kts | 292° |
| 2026-05-07 18:04 | 48.59546 | 13.68065 | 32707 ft | 435 kts | 292° |
| 2026-05-07 18:04 | 48.60819 | 13.63914 | 32962 ft | 435 kts | 292° |
| 2026-05-07 18:05 | 48.62091 | 13.59753 | 33181 ft | 436 kts | 292° |
| 2026-05-07 18:05 | 48.63358 | 13.55594 | 33433 ft | 435 kts | 292° |
| 2026-05-07 18:05 | 48.64618 | 13.51452 | 33717 ft | 434 kts | 292° |
| 2026-05-07 18:05 | 48.65878 | 13.47307 | 33967 ft | 434 kts | 292° |
| 2026-05-07 18:06 | 48.67136 | 13.43155 | 34165 ft | 434 kts | 292° |
| 2026-05-07 18:06 | 48.68393 | 13.39005 | 34349 ft | 434 kts | 292° |
| 2026-05-07 18:06 | 48.69648 | 13.34850 | 34523 ft | 434 kts | 292° |
| 2026-05-07 18:06 | 48.70898 | 13.30690 | 34700 ft | 434 kts | 292° |
| 2026-05-07 18:07 | 48.72145 | 13.26524 | 34872 ft | 434 kts | 292° |
| 2026-05-07 18:07 | 48.73395 | 13.22356 | 35045 ft | 435 kts | 292° |
| 2026-05-07 18:07 | 48.74644 | 13.18185 | 35214 ft | 435 kts | 292° |
| 2026-05-07 18:07 | 48.75895 | 13.14010 | 35392 ft | 435 kts | 292° |
| 2026-05-07 18:08 | 48.77144 | 13.09830 | 35559 ft | 435 kts | 292° |
| 2026-05-07 18:08 | 48.78392 | 13.05647 | 35737 ft | 436 kts | 292° |
| 2026-05-07 18:08 | 48.79641 | 13.01462 | 35886 ft | 436 kts | 292° |
| 2026-05-07 18:08 | 48.80891 | 12.97267 | 36025 ft | 437 kts | 292° |
| 2026-05-07 18:09 | 48.82141 | 12.93067 | 36056 ft | 436 kts | 292° |
| 2026-05-07 18:09 | 48.84612 | 12.84725 | 36056 ft | 436 kts | 292° |
| 2026-05-07 18:10 | 48.87087 | 12.76323 | 36061 ft | 436 kts | 292° |
| 2026-05-07 18:10 | 48.89556 | 12.67918 | 36063 ft | 435 kts | 292° |
| 2026-05-07 18:11 | 48.92022 | 12.59506 | 36061 ft | 436 kts | 292° |
| 2026-05-07 18:11 | 48.94484 | 12.51084 | 36062 ft | 436 kts | 291° |
| 2026-05-07 18:12 | 48.96942 | 12.42638 | 36065 ft | 436 kts | 291° |
| 2026-05-07 18:12 | 48.99388 | 12.34187 | 36078 ft | 436 kts | 291° |
| 2026-05-07 18:13 | 49.01826 | 12.25740 | 36081 ft | 436 kts | 291° |
| 2026-05-07 18:13 | 49.04264 | 12.17272 | 36078 ft | 436 kts | 291° |
| 2026-05-07 18:14 | 49.06696 | 12.08812 | 36074 ft | 435 kts | 291° |
| 2026-05-07 18:14 | 49.09126 | 12.00341 | 36070 ft | 435 kts | 291° |
| 2026-05-07 18:15 | 49.11538 | 11.91867 | 36070 ft | 435 kts | 291° |
| 2026-05-07 18:15 | 49.13635 | 11.84484 | 36068 ft | 435 kts | 291° |
| 2026-05-07 18:16 | 49.15452 | 11.78067 | 36069 ft | 435 kts | 291° |
| 2026-05-07 18:16 | 49.17842 | 11.69594 | 36063 ft | 436 kts | 291° |
| 2026-05-07 18:17 | 49.20236 | 11.61073 | 36065 ft | 436 kts | 291° |
| 2026-05-07 18:17 | 49.22630 | 11.52534 | 36076 ft | 437 kts | 291° |
| 2026-05-07 18:18 | 49.25018 | 11.43980 | 36081 ft | 437 kts | 291° |
| 2026-05-07 18:18 | 49.27399 | 11.35412 | 36079 ft | 437 kts | 291° |
| 2026-05-07 18:19 | 49.29772 | 11.26858 | 36081 ft | 436 kts | 291° |
| 2026-05-07 18:19 | 49.32138 | 11.18295 | 36074 ft | 436 kts | 291° |
| 2026-05-07 18:20 | 49.34636 | 11.09824 | 36075 ft | 437 kts | 301° |
| 2026-05-07 18:20 | 49.38356 | 11.02492 | 36070 ft | 439 kts | 307° |
| 2026-05-07 18:21 | 49.42191 | 10.95195 | 36071 ft | 439 kts | 307° |
| 2026-05-07 18:21 | 49.46029 | 10.87902 | 36080 ft | 439 kts | 307° |
| 2026-05-07 18:22 | 49.49865 | 10.80576 | 36073 ft | 440 kts | 307° |
| 2026-05-07 18:22 | 49.53695 | 10.73223 | 36074 ft | 440 kts | 307° |
| 2026-05-07 18:23 | 49.57517 | 10.65862 | 36076 ft | 440 kts | 307° |
| 2026-05-07 18:23 | 49.61335 | 10.58492 | 36077 ft | 440 kts | 307° |
| 2026-05-07 18:24 | 49.65149 | 10.51110 | 36075 ft | 440 kts | 307° |
| 2026-05-07 18:24 | 49.68965 | 10.43723 | 36076 ft | 439 kts | 307° |
| 2026-05-07 18:25 | 49.72744 | 10.36380 | 36078 ft | 439 kts | 307° |
| 2026-05-07 18:25 | 49.76537 | 10.28972 | 36086 ft | 440 kts | 307° |
| 2026-05-07 18:26 | 49.80325 | 10.21536 | 36078 ft | 440 kts | 307° |
| 2026-05-07 18:26 | 49.84123 | 10.14086 | 36076 ft | 441 kts | 307° |
| 2026-05-07 18:27 | 49.87928 | 10.06631 | 36078 ft | 441 kts | 307° |
| 2026-05-07 18:27 | 49.91717 | 9.99145 | 36075 ft | 441 kts | 307° |
| 2026-05-07 18:28 | 49.95495 | 9.91648 | 36085 ft | 441 kts | 307° |
| 2026-05-07 18:28 | 49.99284 | 9.84149 | 36084 ft | 441 kts | 307° |
| 2026-05-07 18:29 | 50.03061 | 9.76641 | 36095 ft | 441 kts | 307° |
| 2026-05-07 18:29 | 50.06836 | 9.69107 | 36088 ft | 441 kts | 307° |
| 2026-05-07 18:30 | 50.10601 | 9.61567 | 36083 ft | 441 kts | 306° |
| 2026-05-07 18:30 | 50.14329 | 9.54063 | 36083 ft | 440 kts | 306° |
| 2026-05-07 18:31 | 50.18012 | 9.46439 | 36083 ft | 439 kts | 299° |
| 2026-05-07 18:31 | 50.19235 | 9.42109 | 36081 ft | 436 kts | 286° |
| 2026-05-07 18:31 | 50.20134 | 9.37493 | 36074 ft | 436 kts | 286° |
| 2026-05-07 18:32 | 50.21870 | 9.28504 | 36075 ft | 437 kts | 286° |
| 2026-05-07 18:32 | 50.23614 | 9.19410 | 36067 ft | 437 kts | 286° |
| 2026-05-07 18:33 | 50.25355 | 9.10311 | 36081 ft | 437 kts | 286° |
| 2026-05-07 18:33 | 50.27097 | 9.01204 | 36085 ft | 437 kts | 286° |
| 2026-05-07 18:34 | 50.28825 | 8.92093 | 36088 ft | 436 kts | 286° |
| 2026-05-07 18:34 | 50.30546 | 8.82999 | 36081 ft | 436 kts | 285° |
| 2026-05-07 18:35 | 50.32252 | 8.73887 | 36091 ft | 436 kts | 285° |
| 2026-05-07 18:35 | 50.33957 | 8.64769 | 36086 ft | 437 kts | 285° |
| 2026-05-07 18:36 | 50.35656 | 8.55624 | 36083 ft | 437 kts | 285° |
| 2026-05-07 18:36 | 50.37346 | 8.46470 | 35913 ft | 438 kts | 285° |
| 2026-05-07 18:36 | 50.37905 | 8.43431 | 35643 ft | 437 kts | 285° |
| 2026-05-07 18:37 | 50.39019 | 8.37364 | 35127 ft | 436 kts | 285° |
| 2026-05-07 18:37 | 50.39855 | 8.32801 | 34729 ft | 436 kts | 286° |
| 2026-05-07 18:37 | 50.40689 | 8.28234 | 34360 ft | 435 kts | 286° |
| 2026-05-07 18:37 | 50.41522 | 8.23675 | 33966 ft | 435 kts | 286° |
| 2026-05-07 18:38 | 50.42352 | 8.19114 | 33532 ft | 435 kts | 286° |
| 2026-05-07 18:38 | 50.42912 | 8.16027 | 33233 ft | 435 kts | 286° |
| 2026-05-07 18:38 | 50.43739 | 8.11464 | 32793 ft | 436 kts | 286° |
| 2026-05-07 18:38 | 50.44568 | 8.06881 | 32370 ft | 437 kts | 286° |
| 2026-05-07 18:39 | 50.45395 | 8.02287 | 31952 ft | 438 kts | 286° |
| 2026-05-07 18:39 | 50.46225 | 7.97669 | 31531 ft | 439 kts | 286° |
| 2026-05-07 18:39 | 50.47050 | 7.93062 | 31124 ft | 439 kts | 286° |
| 2026-05-07 18:39 | 50.47877 | 7.88438 | 30718 ft | 440 kts | 285° |
| 2026-05-07 18:40 | 50.48694 | 7.83864 | 30327 ft | 441 kts | 285° |
| 2026-05-07 18:40 | 50.49533 | 7.79156 | 29890 ft | 442 kts | 285° |
| 2026-05-07 18:40 | 50.50359 | 7.74504 | 29435 ft | 443 kts | 285° |
| 2026-05-07 18:40 | 50.51173 | 7.69886 | 28980 ft | 444 kts | 285° |
| 2026-05-07 18:41 | 50.52006 | 7.65150 | 28528 ft | 445 kts | 285° |
| 2026-05-07 18:41 | 50.52823 | 7.60504 | 28090 ft | 446 kts | 285° |
| 2026-05-07 18:41 | 50.53648 | 7.55805 | 27655 ft | 447 kts | 285° |
| 2026-05-07 18:41 | 50.54476 | 7.51080 | 27234 ft | 448 kts | 285° |
| 2026-05-07 18:42 | 50.55300 | 7.46348 | 26976 ft | 449 kts | 284° |
| 2026-05-07 18:42 | 50.55833 | 7.41509 | 26715 ft | 449 kts | 274° |
| 2026-05-07 18:42 | 50.55925 | 7.36599 | 26459 ft | 450 kts | 270° |
| 2026-05-07 18:42 | 50.55955 | 7.31679 | 26203 ft | 450 kts | 270° |
| 2026-05-07 18:43 | 50.55987 | 7.26752 | 25946 ft | 451 kts | 270° |
| 2026-05-07 18:43 | 50.56074 | 7.21763 | 25688 ft | 452 kts | 275° |
| 2026-05-07 18:43 | 50.56706 | 7.16911 | 25441 ft | 452 kts | 283° |
| 2026-05-07 18:43 | 50.57477 | 7.12135 | 25193 ft | 450 kts | 283° |
| 2026-05-07 18:44 | 50.58241 | 7.07426 | 24951 ft | 449 kts | 283° |
| 2026-05-07 18:44 | 50.59009 | 7.02680 | 24704 ft | 447 kts | 283° |
| 2026-05-07 18:44 | 50.59774 | 6.97942 | 24471 ft | 446 kts | 283° |
| 2026-05-07 18:44 | 50.60536 | 6.93214 | 24252 ft | 445 kts | 283° |
| 2026-05-07 18:45 | 50.61292 | 6.88491 | 24002 ft | 444 kts | 283° |
| 2026-05-07 18:45 | 50.62038 | 6.83781 | 23768 ft | 443 kts | 283° |
| 2026-05-07 18:45 | 50.62778 | 6.79077 | 23522 ft | 441 kts | 283° |
| 2026-05-07 18:45 | 50.63512 | 6.74391 | 23245 ft | 440 kts | 283° |
| 2026-05-07 18:46 | 50.64242 | 6.69732 | 22822 ft | 438 kts | 283° |
| 2026-05-07 18:46 | 50.64970 | 6.65097 | 22173 ft | 433 kts | 283° |
| 2026-05-07 18:46 | 50.65691 | 6.60512 | 21511 ft | 429 kts | 283° |
| 2026-05-07 18:46 | 50.66407 | 6.55961 | 20849 ft | 425 kts | 283° |
| 2026-05-07 18:47 | 50.67113 | 6.51457 | 20219 ft | 421 kts | 283° |
| 2026-05-07 18:47 | 50.67808 | 6.46990 | 19597 ft | 418 kts | 283° |
| 2026-05-07 18:47 | 50.68490 | 6.42559 | 18994 ft | 414 kts | 283° |
| 2026-05-07 18:47 | 50.69164 | 6.38161 | 18511 ft | 411 kts | 283° |
| 2026-05-07 18:48 | 50.69836 | 6.33791 | 18006 ft | 409 kts | 283° |
| 2026-05-07 18:48 | 50.70506 | 6.29444 | 17467 ft | 406 kts | 283° |
| 2026-05-07 18:48 | 50.71172 | 6.25127 | 16931 ft | 403 kts | 283° |
| 2026-05-07 18:48 | 50.71830 | 6.20847 | 16417 ft | 401 kts | 283° |
| 2026-05-07 18:49 | 50.72481 | 6.16586 | 15907 ft | 398 kts | 283° |
| 2026-05-07 18:49 | 50.73125 | 6.12354 | 15402 ft | 395 kts | 283° |
| 2026-05-07 18:49 | 50.73763 | 6.08152 | 14911 ft | 392 kts | 283° |
| 2026-05-07 18:49 | 50.74396 | 6.03973 | 14423 ft | 390 kts | 282° |
| 2026-05-07 18:50 | 50.75020 | 5.99826 | 13944 ft | 388 kts | 282° |
| 2026-05-07 18:50 | 50.75640 | 5.95693 | 13414 ft | 385 kts | 282° |
| 2026-05-07 18:50 | 50.76255 | 5.91579 | 12882 ft | 383 kts | 282° |
| 2026-05-07 18:50 | 50.76862 | 5.87508 | 12367 ft | 380 kts | 282° |
| 2026-05-07 18:51 | 50.77463 | 5.83453 | 11847 ft | 378 kts | 282° |
| 2026-05-07 18:51 | 50.78057 | 5.79443 | 11340 ft | 369 kts | 282° |
| 2026-05-07 18:51 | 50.78629 | 5.75591 | 11173 ft | 351 kts | 282° |
| 2026-05-07 18:51 | 50.79172 | 5.71945 | 11119 ft | 331 kts | 282° |
| 2026-05-07 18:52 | 50.79677 | 5.68548 | 11068 ft | 313 kts | 282° |
| 2026-05-07 18:52 | 50.80160 | 5.65283 | 10972 ft | 297 kts | 282° |
| 2026-05-07 18:52 | 50.80623 | 5.62142 | 10687 ft | 290 kts | 282° |
| 2026-05-07 18:52 | 50.81076 | 5.59054 | 10386 ft | 287 kts | 282° |
| 2026-05-07 18:53 | 50.81525 | 5.55989 | 10091 ft | 285 kts | 282° |
| 2026-05-07 18:53 | 50.81969 | 5.52947 | 9781 ft | 284 kts | 282° |
| 2026-05-07 18:53 | 50.82411 | 5.49911 | 9457 ft | 283 kts | 282° |
| 2026-05-07 18:53 | 50.82862 | 5.46893 | 9136 ft | 281 kts | 285° |
| 2026-05-07 18:54 | 50.83551 | 5.44001 | 8822 ft | 281 kts | 292° |
| 2026-05-07 18:54 | 50.84322 | 5.41172 | 8506 ft | 280 kts | 293° |
| 2026-05-07 18:54 | 50.85097 | 5.38360 | 8197 ft | 278 kts | 293° |
| 2026-05-07 18:54 | 50.85869 | 5.35557 | 7889 ft | 277 kts | 293° |
| 2026-05-07 18:55 | 50.86634 | 5.32771 | 7585 ft | 276 kts | 293° |
| 2026-05-07 18:55 | 50.87396 | 5.29989 | 7286 ft | 275 kts | 293° |
| 2026-05-07 18:55 | 50.88155 | 5.27215 | 6985 ft | 274 kts | 293° |
| 2026-05-07 18:55 | 50.88908 | 5.24461 | 6689 ft | 272 kts | 293° |
| 2026-05-07 18:56 | 50.89617 | 5.21860 | 6406 ft | 272 kts | 293° |
| 2026-05-07 18:56 | 50.90361 | 5.19121 | 6139 ft | 270 kts | 293° |
| 2026-05-07 18:56 | 50.91007 | 5.16731 | 6087 ft | 271 kts | 293° |
| 2026-05-07 18:56 | 50.91564 | 5.14663 | 6088 ft | 272 kts | 293° |
| 2026-05-07 18:57 | 50.92307 | 5.11900 | 6090 ft | 272 kts | 293° |
| 2026-05-07 18:57 | 50.93048 | 5.09146 | 6089 ft | 269 kts | 293° |
| 2026-05-07 18:57 | 50.93766 | 5.06465 | 5814 ft | 261 kts | 293° |
| 2026-05-07 18:57 | 50.94471 | 5.03827 | 5432 ft | 259 kts | 293° |
| 2026-05-07 18:58 | 50.95166 | 5.01204 | 5057 ft | 257 kts | 293° |
| 2026-05-07 18:58 | 50.95852 | 4.98593 | 4665 ft | 254 kts | 293° |
| 2026-05-07 18:58 | 50.96510 | 4.96077 | 4273 ft | 240 kts | 293° |
| 2026-05-07 18:58 | 50.97138 | 4.93677 | 4025 ft | 227 kts | 293° |
| 2026-05-07 18:59 | 50.97711 | 4.91483 | 4041 ft | 204 kts | 292° |
| 2026-05-07 18:59 | 50.98054 | 4.89385 | 4031 ft | 195 kts | 274° |
| 2026-05-07 18:59 | 50.97877 | 4.87277 | 4022 ft | 193 kts | 251° |
| 2026-05-07 18:59 | 50.97427 | 4.85301 | 4019 ft | 193 kts | 250° |
| 2026-05-07 19:00 | 50.96975 | 4.83306 | 4020 ft | 193 kts | 250° |
| 2026-05-07 19:00 | 50.96524 | 4.81318 | 3950 ft | 185 kts | 250° |
| 2026-05-07 19:00 | 50.96103 | 4.79465 | 3767 ft | 174 kts | 250° |
| 2026-05-07 19:00 | 50.95697 | 4.77679 | 3552 ft | 171 kts | 250° |
| 2026-05-07 19:01 | 50.95294 | 4.75909 | 3332 ft | 170 kts | 250° |
| 2026-05-07 19:01 | 50.94893 | 4.74150 | 3098 ft | 169 kts | 250° |
| 2026-05-07 19:01 | 50.94498 | 4.72419 | 2862 ft | 164 kts | 250° |
| 2026-05-07 19:01 | 50.94112 | 4.70730 | 2651 ft | 162 kts | 250° |
| 2026-05-07 19:02 | 50.93740 | 4.69098 | 2431 ft | 152 kts | 250° |
| 2026-05-07 19:02 | 50.93385 | 4.67548 | 2219 ft | 148 kts | 250° |
| 2026-05-07 19:02 | 50.93039 | 4.66033 | 2025 ft | 146 kts | 250° |
| 2026-05-07 19:02 | 50.92694 | 4.64531 | 1828 ft | 145 kts | 250° |
| 2026-05-07 19:03 | 50.92352 | 4.63034 | 1629 ft | 144 kts | 250° |
| 2026-05-07 19:03 | 50.92010 | 4.61545 | 1432 ft | 144 kts | 250° |
| 2026-05-07 19:03 | 50.91669 | 4.60058 | 1236 ft | 143 kts | 250° |
| 2026-05-07 19:03 | 50.91334 | 4.58597 | 1041 ft | 143 kts | 250° |
| 2026-05-07 19:04 | 50.90991 | 4.57105 | 836 ft | 142 kts | 250° |
| 2026-05-07 19:04 | 50.90653 | 4.55635 | 645 ft | 142 kts | 250° |
| 2026-05-07 19:04 | 50.90320 | 4.54188 | 459 ft | 142 kts | 250° |
| 2026-05-07 19:04 | 50.89983 | 4.52722 | 272 ft | 142 kts | 250° |
| 2026-05-07 19:05 | 50.89651 | 4.51283 | 175 ft | 132 kts | 250° |
| 2026-05-07 19:05 | 50.89397 | 4.50177 | 176 ft | 75 kts | 250° |
| 2026-05-07 19:05 | 50.89331 | 4.49847 | 178 ft | 19 kts | 265° |
| 2026-05-07 19:05 | 50.89381 | 4.49649 | 172 ft | 20 kts | 306° |
| 2026-05-07 19:06 | 50.89460 | 4.49483 | 165 ft | 20 kts | 307° |
| 2026-05-07 19:06 | 50.89604 | 4.49179 | 155 ft | 11 kts | 310° |
| 2026-05-07 19:06 | 50.89684 | 4.49162 | 150 ft | 15 kts | 13° |
| 2026-05-07 19:07 | 50.89798 | 4.49207 | 144 ft | 19 kts | 14° |
| 2026-05-07 19:07 | 50.89941 | 4.49266 | 135 ft | 23 kts | 14° |
| 2026-05-07 19:07 | 50.90097 | 4.49330 | 127 ft | 22 kts | 14° |
| 2026-05-07 19:07 | 50.90231 | 4.49383 | 125 ft | 19 kts | 14° |
| 2026-05-07 19:08 | 50.90327 | 4.49381 | 122 ft | 12 kts | 308° |
| 2026-05-07 19:08 | 50.90315 | 4.49283 | 125 ft | 9 kts | 246° |
| 2026-05-07 19:08 | 50.90310 | 4.49263 | 124 ft | 9 kts | 246° |
| 2026-05-07 19:08 | 50.90285 | 4.49176 | 126 ft | 9 kts | 245° |
| 2026-05-07 19:09 | 50.90252 | 4.49062 | 126 ft | 16 kts | 245° |
| 2026-05-07 19:09 | 50.90197 | 4.48874 | 126 ft | 17 kts | 245° |
| 2026-05-07 19:09 | 50.90139 | 4.48674 | 124 ft | 11 kts | 245° |
| 2026-05-07 19:09 | 50.90157 | 4.48594 | 126 ft | 9 kts | 332° |
| 2026-05-07 19:10 | 50.90223 | 4.48546 | 121 ft | 7 kts | 335° |
| 2026-05-07 19:10 | 50.90252 | 4.48525 | 120 ft | 3 kts | 335° |
| 2026-05-07 19:10 | 50.90262 | 4.48518 | 120 ft | 0 kts | 335° |